Terminal Aerodrome Forecast
Issued by NWS Sterling, VA

Current Version | Previous Version | Text Only | Print | Product List | Glossary Off
Versions: 1 2 3 4 5 6 7 8 9 10 11 12 13 14 15 16 17 18 19 20 21 22 23 24 25 26 27 28 29

000
FTUS41 KLWX 231500 AAA
TAFIAD
TAF AMD
KIAD 231504Z 2315/2418 34004KT 1/2SM FG OVC003
      TEMPO 2315/2318 1/4SM FG OVC002
     FM231800 00000KT 3SM -DZ BR OVC003
     FM232000 00000KT 3SM -DZ SCT004 OVC008
     FM240200 VRB03KT 5SM -RA OVC003
     FM241100 VRB03KT 3SM RA OVC003
     FM241400 15004KT 3SM RA OVC008=

USA.gov is the U.S. government's official web portal to all federal, state and local government web resources and services.